sensor_id;sensor_type;location;lat;lon;timestamp;pressure;altitude;pressure_sealevel;temperature;humidity
76195;BME280;64964;48.694;21.206;2023-03-31T00:01:15;97472.47;;;6.46;78.50
76195;BME280;64964;48.694;21.206;2023-03-31T00:03:40;97470.31;;;6.41;80.73
76195;BME280;64964;48.694;21.206;2023-03-31T00:06:10;97473.56;;;6.35;80.81
76195;BME280;64964;48.694;21.206;2023-03-31T00:08:36;97469.94;;;6.28;81.47
76195;BME280;64964;48.694;21.206;2023-03-31T00:11:05;97464.00;;;6.26;80.18
76195;BME280;64964;48.694;21.206;2023-03-31T00:13:34;97464.78;;;6.18;81.74
76195;BME280;64964;48.694;21.206;2023-03-31T00:16:06;97446.41;;;6.18;81.02
76195;BME280;64964;48.694;21.206;2023-03-31T00:18:32;97447.25;;;6.19;80.81
76195;BME280;64964;48.694;21.206;2023-03-31T00:21:07;97448.16;;;6.10;82.84
76195;BME280;64964;48.694;21.206;2023-03-31T00:23:33;97447.22;;;5.93;83.65
76195;BME280;64964;48.694;21.206;2023-03-31T00:25:58;97443.47;;;5.95;83.48
76195;BME280;64964;48.694;21.206;2023-03-31T00:28:24;97444.22;;;5.88;83.94
76195;BME280;64964;48.694;21.206;2023-03-31T00:30:49;97438.97;;;5.88;83.39
76195;BME280;64964;48.694;21.206;2023-03-31T00:33:16;97432.38;;;5.84;83.85
76195;BME280;64964;48.694;21.206;2023-03-31T00:35:41;97421.00;;;5.75;85.21
76195;BME280;64964;48.694;21.206;2023-03-31T00:38:07;97407.91;;;5.75;84.83
76195;BME280;64964;48.694;21.206;2023-03-31T00:40:34;97404.50;;;5.83;83.25
76195;BME280;64964;48.694;21.206;2023-03-31T00:42:59;97392.25;;;5.91;82.01
76195;BME280;64964;48.694;21.206;2023-03-31T00:45:29;97378.78;;;5.86;84.45
76195;BME280;64964;48.694;21.206;2023-03-31T00:48:06;97373.03;;;5.83;84.29
76195;BME280;64964;48.694;21.206;2023-03-31T00:50:40;97376.44;;;5.75;84.47
76195;BME280;64964;48.694;21.206;2023-03-31T00:53:11;97384.25;;;5.67;84.54
76195;BME280;64964;48.694;21.206;2023-03-31T00:55:44;97381.44;;;5.60;84.77
76195;BME280;64964;48.694;21.206;2023-03-31T00:58:11;97365.69;;;5.60;84.44
76195;BME280;64964;48.694;21.206;2023-03-31T01:00:39;97363.19;;;5.59;84.55
76195;BME280;64964;48.694;21.206;2023-03-31T01:03:06;97377.75;;;5.53;85.47
76195;BME280;64964;48.694;21.206;2023-03-31T01:05:46;97367.56;;;5.50;85.65
76195;BME280;64964;48.694;21.206;2023-03-31T01:08:15;97368.75;;;5.56;85.26
76195;BME280;64964;48.694;21.206;2023-03-31T01:10:46;97366.44;;;5.53;85.28
76195;BME280;64964;48.694;21.206;2023-03-31T01:13:15;97366.59;;;5.51;85.12
76195;BME280;64964;48.694;21.206;2023-03-31T01:15:42;97352.66;;;5.50;84.97
76195;BME280;64964;48.694;21.206;2023-03-31T01:18:08;97357.59;;;5.54;84.30
76195;BME280;64964;48.694;21.206;2023-03-31T01:21:10;97374.22;;;5.62;83.63
76195;BME280;64964;48.694;21.206;2023-03-31T01:23:57;97361.00;;;5.72;83.10
76195;BME280;64964;48.694;21.206;2023-03-31T01:26:49;97361.03;;;5.80;83.29
76195;BME280;64964;48.694;21.206;2023-03-31T01:32:16;97376.38;;;5.93;82.16
76195;BME280;64964;48.694;21.206;2023-03-31T01:35:10;97365.28;;;5.99;82.33
76195;BME280;64964;48.694;21.206;2023-03-31T01:38:29;97353.50;;;6.03;81.41
76195;BME280;64964;48.694;21.206;2023-03-31T01:41:26;97350.41;;;6.08;81.72
76195;BME280;64964;48.694;21.206;2023-03-31T01:44:01;97355.00;;;6.14;80.10
76195;BME280;64964;48.694;21.206;2023-03-31T01:46:34;97353.72;;;6.18;79.96
76195;BME280;64964;48.694;21.206;2023-03-31T01:54:36;97336.06;;;6.28;79.86
76195;BME280;64964;48.694;21.206;2023-03-31T01:57:23;97351.63;;;6.30;80.56
76195;BME280;64964;48.694;21.206;2023-03-31T02:00:02;97364.47;;;6.33;79.88
76195;BME280;64964;48.694;21.206;2023-03-31T02:02:32;97361.53;;;6.36;78.90
76195;BME280;64964;48.694;21.206;2023-03-31T02:05:06;97356.28;;;6.36;78.94
76195;BME280;64964;48.694;21.206;2023-03-31T02:07:41;97332.47;;;6.37;79.30
76195;BME280;64964;48.694;21.206;2023-03-31T02:10:10;97326.09;;;6.40;78.92
76195;BME280;64964;48.694;21.206;2023-03-31T02:12:38;97331.81;;;6.43;78.68
76195;BME280;64964;48.694;21.206;2023-03-31T02:15:07;97340.38;;;6.45;78.84
76195;BME280;64964;48.694;21.206;2023-03-31T02:17:34;97339.25;;;6.48;78.69
76195;BME280;64964;48.694;21.206;2023-03-31T02:20:09;97361.72;;;6.51;78.44
76195;BME280;64964;48.694;21.206;2023-03-31T02:22:38;97364.34;;;6.51;78.51
76195;BME280;64964;48.694;21.206;2023-03-31T02:25:09;97352.50;;;6.38;81.04
76195;BME280;64964;48.694;21.206;2023-03-31T02:27:40;97346.22;;;6.23;81.77
76195;BME280;64964;48.694;21.206;2023-03-31T02:30:08;97353.25;;;6.22;81.15
76195;BME280;64964;48.694;21.206;2023-03-31T02:32:39;97350.25;;;6.09;83.20
76195;BME280;64964;48.694;21.206;2023-03-31T02:35:07;97361.25;;;6.13;81.70
76195;BME280;64964;48.694;21.206;2023-03-31T02:37:34;97362.88;;;6.14;81.92
76195;BME280;64964;48.694;21.206;2023-03-31T02:40:05;97355.66;;;6.08;82.01
76195;BME280;64964;48.694;21.206;2023-03-31T02:42:33;97355.81;;;6.14;80.58
76195;BME280;64964;48.694;21.206;2023-03-31T02:45:33;97359.31;;;6.15;81.92
76195;BME280;64964;48.694;21.206;2023-03-31T02:47:52;97362.56;;;6.17;80.68
76195;BME280;64964;48.694;21.206;2023-03-31T02:50:19;97353.22;;;6.14;81.33
76195;BME280;64964;48.694;21.206;2023-03-31T02:52:57;97357.81;;;6.12;81.84
76195;BME280;64964;48.694;21.206;2023-03-31T02:55:46;97350.88;;;6.03;83.37
76195;BME280;64964;48.694;21.206;2023-03-31T03:06:18;97344.00;;;6.02;81.90
76195;BME280;64964;48.694;21.206;2023-03-31T03:17:17;97349.78;;;6.22;79.72
76195;BME280;64964;48.694;21.206;2023-03-31T03:19:40;97352.56;;;6.12;81.75
76195;BME280;64964;48.694;21.206;2023-03-31T03:22:06;97353.00;;;5.99;81.65
76195;BME280;64964;48.694;21.206;2023-03-31T03:24:32;97360.94;;;5.90;81.09
76195;BME280;64964;48.694;21.206;2023-03-31T03:26:58;97361.91;;;5.89;80.55
76195;BME280;64964;48.694;21.206;2023-03-31T03:29:24;97362.31;;;5.94;80.16
76195;BME280;64964;48.694;21.206;2023-03-31T03:31:51;97364.31;;;6.00;79.73
76195;BME280;64964;48.694;21.206;2023-03-31T03:34:16;97367.09;;;5.98;80.37
76195;BME280;64964;48.694;21.206;2023-03-31T03:36:44;97370.38;;;6.01;80.04
76195;BME280;64964;48.694;21.206;2023-03-31T03:39:10;97376.13;;;6.04;79.31
76195;BME280;64964;48.694;21.206;2023-03-31T03:41:36;97378.44;;;6.07;79.58
76195;BME280;64964;48.694;21.206;2023-03-31T03:44:02;97380.09;;;6.08;79.58
76195;BME280;64964;48.694;21.206;2023-03-31T03:46:27;97371.22;;;6.09;79.77
76195;BME280;64964;48.694;21.206;2023-03-31T03:48:53;97368.47;;;6.11;79.04
76195;BME280;64964;48.694;21.206;2023-03-31T03:51:18;97369.13;;;6.13;79.30
76195;BME280;64964;48.694;21.206;2023-03-31T03:53:43;97368.00;;;6.15;78.92
76195;BME280;64964;48.694;21.206;2023-03-31T03:56:09;97360.94;;;6.16;79.19
76195;BME280;64964;48.694;21.206;2023-03-31T03:58:34;97360.63;;;6.19;78.78
76195;BME280;64964;48.694;21.206;2023-03-31T04:01:00;97360.94;;;6.16;79.36
76195;BME280;64964;48.694;21.206;2023-03-31T04:03:26;97363.78;;;5.96;81.90
76195;BME280;64964;48.694;21.206;2023-03-31T04:05:51;97360.34;;;5.96;81.27
76195;BME280;64964;48.694;21.206;2023-03-31T04:08:18;97370.53;;;5.99;80.08
76195;BME280;64964;48.694;21.206;2023-03-31T04:10:45;97380.56;;;6.04;79.66
76195;BME280;64964;48.694;21.206;2023-03-31T04:13:12;97372.84;;;6.02;80.23
76195;BME280;64964;48.694;21.206;2023-03-31T04:15:37;97367.91;;;5.99;80.35
76195;BME280;64964;48.694;21.206;2023-03-31T04:18:03;97372.00;;;6.02;79.40
76195;BME280;64964;48.694;21.206;2023-03-31T04:20:28;97378.75;;;6.04;79.27
76195;BME280;64964;48.694;21.206;2023-03-31T04:22:55;97388.94;;;6.07;78.91
76195;BME280;64964;48.694;21.206;2023-03-31T04:25:21;97376.34;;;6.11;79.27
76195;BME280;64964;48.694;21.206;2023-03-31T04:27:50;97359.44;;;6.13;78.94
76195;BME280;64964;48.694;21.206;2023-03-31T04:30:27;97356.81;;;6.13;79.59
76195;BME280;64964;48.694;21.206;2023-03-31T04:32:57;97361.59;;;6.18;78.78
76195;BME280;64964;48.694;21.206;2023-03-31T04:35:24;97364.91;;;6.20;78.81
76195;BME280;64964;48.694;21.206;2023-03-31T04:37:51;97359.34;;;6.23;78.44
76195;BME280;64964;48.694;21.206;2023-03-31T04:40:23;97354.09;;;6.23;78.93
76195;BME280;64964;48.694;21.206;2023-03-31T04:42:48;97350.31;;;6.26;78.82
76195;BME280;64964;48.694;21.206;2023-03-31T04:45:14;97352.59;;;6.20;80.23
76195;BME280;64964;48.694;21.206;2023-03-31T04:47:39;97342.06;;;6.12;80.50
76195;BME280;64964;48.694;21.206;2023-03-31T04:50:05;97347.56;;;6.01;81.53
76195;BME280;64964;48.694;21.206;2023-03-31T04:52:31;97349.38;;;6.01;81.41
76195;BME280;64964;48.694;21.206;2023-03-31T04:54:56;97343.00;;;6.03;79.97
76195;BME280;64964;48.694;21.206;2023-03-31T04:57:21;97335.47;;;6.08;79.66
76195;BME280;64964;48.694;21.206;2023-03-31T04:59:47;97342.88;;;6.13;79.88
76195;BME280;64964;48.694;21.206;2023-03-31T05:02:12;97344.22;;;6.17;79.61
76195;BME280;64964;48.694;21.206;2023-03-31T05:04:38;97340.13;;;6.22;79.10
76195;BME280;64964;48.694;21.206;2023-03-31T05:07:03;97343.59;;;6.23;79.83
76195;BME280;64964;48.694;21.206;2023-03-31T05:09:28;97338.81;;;6.27;79.31
76195;BME280;64964;48.694;21.206;2023-03-31T05:11:55;97345.75;;;6.28;79.07
76195;BME280;64964;48.694;21.206;2023-03-31T05:14:21;97340.31;;;6.29;78.72
76195;BME280;64964;48.694;21.206;2023-03-31T05:16:46;97338.81;;;6.27;79.40
76195;BME280;64964;48.694;21.206;2023-03-31T05:19:11;97336.88;;;6.29;78.67
76195;BME280;64964;48.694;21.206;2023-03-31T05:21:37;97330.63;;;6.30;78.85
76195;BME280;64964;48.694;21.206;2023-03-31T05:24:02;97330.13;;;6.26;80.50
76195;BME280;64964;48.694;21.206;2023-03-31T05:26:29;97323.84;;;6.11;81.69
76195;BME280;64964;48.694;21.206;2023-03-31T05:28:55;97326.81;;;6.16;79.96
76195;BME280;64964;48.694;21.206;2023-03-31T05:31:21;97321.91;;;6.21;79.44
76195;BME280;64964;48.694;21.206;2023-03-31T05:33:46;97330.94;;;6.27;79.35
76195;BME280;64964;48.694;21.206;2023-03-31T05:36:14;97334.91;;;6.31;79.10
76195;BME280;64964;48.694;21.206;2023-03-31T05:38:40;97325.91;;;6.33;79.39
76195;BME280;64964;48.694;21.206;2023-03-31T05:41:06;97324.72;;;6.19;81.80
76195;BME280;64964;48.694;21.206;2023-03-31T05:43:34;97313.53;;;6.17;81.24
76195;BME280;64964;48.694;21.206;2023-03-31T05:45:59;97317.97;;;6.17;80.73
76195;BME280;64964;48.694;21.206;2023-03-31T05:48:24;97319.59;;;6.18;80.64
76195;BME280;64964;48.694;21.206;2023-03-31T05:50:50;97320.94;;;6.22;80.28
76195;BME280;64964;48.694;21.206;2023-03-31T05:53:15;97327.97;;;6.21;80.43
76195;BME280;64964;48.694;21.206;2023-03-31T05:55:40;97339.09;;;6.07;82.63
76195;BME280;64964;48.694;21.206;2023-03-31T05:58:06;97333.50;;;6.02;82.73
76195;BME280;64964;48.694;21.206;2023-03-31T06:00:33;97324.63;;;6.03;81.36
76195;BME280;64964;48.694;21.206;2023-03-31T06:03:00;97331.31;;;5.97;83.59
76195;BME280;64964;48.694;21.206;2023-03-31T06:05:25;97323.09;;;5.92;83.26
76195;BME280;64964;48.694;21.206;2023-03-31T06:07:52;97331.31;;;5.97;82.96
76195;BME280;64964;48.694;21.206;2023-03-31T06:10:18;97334.41;;;5.93;83.84
76195;BME280;64964;48.694;21.206;2023-03-31T06:12:44;97327.81;;;5.89;83.98
76195;BME280;64964;48.694;21.206;2023-03-31T06:15:09;97329.59;;;5.88;84.37
76195;BME280;64964;48.694;21.206;2023-03-31T06:17:35;97329.94;;;5.85;84.43
76195;BME280;64964;48.694;21.206;2023-03-31T06:20:00;97334.19;;;5.86;84.06
76195;BME280;64964;48.694;21.206;2023-03-31T06:22:26;97337.34;;;5.90;84.31
76195;BME280;64964;48.694;21.206;2023-03-31T06:24:51;97333.59;;;5.92;83.11
76195;BME280;64964;48.694;21.206;2023-03-31T06:27:16;97337.34;;;5.90;84.66
76195;BME280;64964;48.694;21.206;2023-03-31T06:29:42;97349.59;;;5.89;84.76
76195;BME280;64964;48.694;21.206;2023-03-31T06:32:07;97343.97;;;5.94;84.60
76195;BME280;64964;48.694;21.206;2023-03-31T06:34:33;97339.66;;;5.93;84.68
76195;BME280;64964;48.694;21.206;2023-03-31T06:36:58;97345.78;;;6.02;83.46
76195;BME280;64964;48.694;21.206;2023-03-31T06:39:23;97350.88;;;6.03;83.55
76195;BME280;64964;48.694;21.206;2023-03-31T06:41:49;97347.31;;;6.12;82.95
76195;BME280;64964;48.694;21.206;2023-03-31T06:44:14;97342.91;;;6.21;82.30
76195;BME280;64964;48.694;21.206;2023-03-31T06:46:41;97340.59;;;6.18;83.27
76195;BME280;64964;48.694;21.206;2023-03-31T06:49:07;97342.75;;;6.22;81.75
76195;BME280;64964;48.694;21.206;2023-03-31T06:51:32;97348.38;;;6.28;81.38
76195;BME280;64964;48.694;21.206;2023-03-31T06:53:58;97341.81;;;6.32;80.89
76195;BME280;64964;48.694;21.206;2023-03-31T06:56:23;97346.69;;;6.27;83.34
76195;BME280;64964;48.694;21.206;2023-03-31T06:58:48;97357.38;;;6.25;83.52
76195;BME280;64964;48.694;21.206;2023-03-31T07:01:14;97357.56;;;6.32;82.80
76195;BME280;64964;48.694;21.206;2023-03-31T07:03:39;97353.44;;;6.29;83.51
76195;BME280;64964;48.694;21.206;2023-03-31T07:06:05;97358.72;;;6.37;82.23
76195;BME280;64964;48.694;21.206;2023-03-31T07:08:31;97363.03;;;6.46;81.57
76195;BME280;64964;48.694;21.206;2023-03-31T07:10:58;97367.78;;;6.51;82.12
76195;BME280;64964;48.694;21.206;2023-03-31T07:13:25;97351.91;;;6.53;82.39
76195;BME280;64964;48.694;21.206;2023-03-31T07:15:50;97357.31;;;6.59;81.05
76195;BME280;64964;48.694;21.206;2023-03-31T07:18:16;97356.69;;;6.65;80.51
76195;BME280;64964;48.694;21.206;2023-03-31T07:20:46;97357.66;;;6.64;81.14
76195;BME280;64964;48.694;21.206;2023-03-31T07:23:11;97368.00;;;6.66;80.99
76195;BME280;64964;48.694;21.206;2023-03-31T07:25:36;97364.22;;;6.68;81.10
76195;BME280;64964;48.694;21.206;2023-03-31T07:28:03;97357.19;;;6.69;81.21
76195;BME280;64964;48.694;21.206;2023-03-31T07:30:29;97358.50;;;6.65;80.88
76195;BME280;64964;48.694;21.206;2023-03-31T07:32:55;97358.47;;;6.57;81.47
76195;BME280;64964;48.694;21.206;2023-03-31T07:35:20;97357.63;;;6.56;81.40
76195;BME280;64964;48.694;21.206;2023-03-31T07:37:48;97366.97;;;6.51;82.69
76195;BME280;64964;48.694;21.206;2023-03-31T07:40:17;97373.53;;;6.46;82.43
76195;BME280;64964;48.694;21.206;2023-03-31T07:42:43;97373.00;;;6.43;83.10
76195;BME280;64964;48.694;21.206;2023-03-31T07:45:11;97370.06;;;6.46;82.46
76195;BME280;64964;48.694;21.206;2023-03-31T07:47:36;97363.69;;;6.48;82.66
76195;BME280;64964;48.694;21.206;2023-03-31T07:50:04;97362.44;;;6.61;80.67
76195;BME280;64964;48.694;21.206;2023-03-31T07:52:30;97355.50;;;6.60;81.57
76195;BME280;64964;48.694;21.206;2023-03-31T07:54:55;97364.41;;;6.67;81.01
76195;BME280;64964;48.694;21.206;2023-03-31T07:57:20;97358.34;;;6.74;80.52
76195;BME280;64964;48.694;21.206;2023-03-31T07:59:46;97354.56;;;6.77;81.03
76195;BME280;64964;48.694;21.206;2023-03-31T08:02:12;97358.63;;;6.63;81.53
76195;BME280;64964;48.694;21.206;2023-03-31T08:04:38;97358.81;;;6.70;81.83
76195;BME280;64964;48.694;21.206;2023-03-31T08:07:06;97357.34;;;6.76;80.66
76195;BME280;64964;48.694;21.206;2023-03-31T08:09:31;97350.31;;;6.84;80.49
76195;BME280;64964;48.694;21.206;2023-03-31T08:11:57;97347.69;;;6.92;80.29
76195;BME280;64964;48.694;21.206;2023-03-31T08:14:22;97346.06;;;6.99;79.31
76195;BME280;64964;48.694;21.206;2023-03-31T08:16:47;97345.41;;;7.06;79.26
76195;BME280;64964;48.694;21.206;2023-03-31T08:19:13;97343.94;;;7.11;79.38
76195;BME280;64964;48.694;21.206;2023-03-31T08:21:38;97343.94;;;7.11;80.44
76195;BME280;64964;48.694;21.206;2023-03-31T08:24:04;97347.06;;;7.07;80.35
76195;BME280;64964;48.694;21.206;2023-03-31T08:26:30;97330.78;;;6.95;81.46
76195;BME280;64964;48.694;21.206;2023-03-31T08:28:57;97328.81;;;7.05;80.38
76195;BME280;64964;48.694;21.206;2023-03-31T08:31:23;97318.16;;;6.90;81.71
76195;BME280;64964;48.694;21.206;2023-03-31T08:33:48;97311.72;;;6.93;81.13
76195;BME280;64964;48.694;21.206;2023-03-31T08:36:14;97318.44;;;6.79;80.63
76195;BME280;64964;48.694;21.206;2023-03-31T08:38:41;97316.16;;;6.92;80.12
76195;BME280;64964;48.694;21.206;2023-03-31T08:41:24;97320.59;;;6.84;81.59
76195;BME280;64964;48.694;21.206;2023-03-31T08:43:54;97316.50;;;6.73;82.19
76195;BME280;64964;48.694;21.206;2023-03-31T08:46:22;97316.47;;;6.81;81.97
76195;BME280;64964;48.694;21.206;2023-03-31T08:48:50;97314.34;;;6.93;81.33
76195;BME280;64964;48.694;21.206;2023-03-31T08:51:22;97312.03;;;6.98;81.04
76195;BME280;64964;48.694;21.206;2023-03-31T08:53:59;97306.47;;;7.01;80.52
76195;BME280;64964;48.694;21.206;2023-03-31T08:56:29;97304.84;;;7.16;79.88
76195;BME280;64964;48.694;21.206;2023-03-31T08:58:58;97296.28;;;7.22;80.17
76195;BME280;64964;48.694;21.206;2023-03-31T09:06:52;97290.84;;;7.57;78.94
76195;BME280;64964;48.694;21.206;2023-03-31T09:10:10;97284.88;;;7.63;78.48
76195;BME280;64964;48.694;21.206;2023-03-31T09:20:52;97284.56;;;7.58;79.10
76195;BME280;64964;48.694;21.206;2023-03-31T09:23:27;97280.41;;;7.80;78.75
76195;BME280;64964;48.694;21.206;2023-03-31T09:25:55;97265.72;;;7.85;78.59
76195;BME280;64964;48.694;21.206;2023-03-31T09:28:31;97273.47;;;7.87;78.50
76195;BME280;64964;48.694;21.206;2023-03-31T09:30:59;97256.34;;;7.91;78.48
76195;BME280;64964;48.694;21.206;2023-03-31T09:33:29;97256.88;;;7.86;78.99
76195;BME280;64964;48.694;21.206;2023-03-31T09:35:58;97260.25;;;8.03;78.44
76195;BME280;64964;48.694;21.206;2023-03-31T09:38:24;97252.72;;;8.23;77.46
76195;BME280;64964;48.694;21.206;2023-03-31T09:40:55;97256.47;;;8.37;76.82
76195;BME280;64964;48.694;21.206;2023-03-31T09:43:23;97257.31;;;8.37;75.41
76195;BME280;64964;48.694;21.206;2023-03-31T09:45:50;97257.72;;;8.49;75.76
76195;BME280;64964;48.694;21.206;2023-03-31T09:48:22;97251.22;;;8.37;75.70
76195;BME280;64964;48.694;21.206;2023-03-31T09:50:56;97243.03;;;8.23;76.39
76195;BME280;64964;48.694;21.206;2023-03-31T09:53:48;97250.50;;;8.43;76.42
76195;BME280;64964;48.694;21.206;2023-03-31T09:59:17;97254.03;;;8.58;75.37
76195;BME280;64964;48.694;21.206;2023-03-31T10:01:45;97241.63;;;8.67;75.48
76195;BME280;64964;48.694;21.206;2023-03-31T10:04:19;97232.38;;;8.71;75.30
76195;BME280;64964;48.694;21.206;2023-03-31T10:06:46;97231.31;;;8.80;75.08
76195;BME280;64964;48.694;21.206;2023-03-31T10:09:12;97234.28;;;8.77;75.06
76195;BME280;64964;48.694;21.206;2023-03-31T10:11:38;97240.47;;;8.69;74.42
76195;BME280;64964;48.694;21.206;2023-03-31T10:14:04;97238.38;;;8.57;74.75
76195;BME280;64964;48.694;21.206;2023-03-31T10:19:28;97225.66;;;8.45;74.52
76195;BME280;64964;48.694;21.206;2023-03-31T10:21:57;97216.16;;;8.59;74.97
76195;BME280;64964;48.694;21.206;2023-03-31T10:24:23;97208.00;;;8.69;75.10
76195;BME280;64964;48.694;21.206;2023-03-31T10:26:53;97194.88;;;8.84;74.81
76195;BME280;64964;48.694;21.206;2023-03-31T10:29:31;97199.88;;;8.93;74.30
76195;BME280;64964;48.694;21.206;2023-03-31T10:32:33;97201.53;;;8.94;73.21
76195;BME280;64964;48.694;21.206;2023-03-31T10:35:19;97203.34;;;8.94;72.93
76195;BME280;64964;48.694;21.206;2023-03-31T10:37:48;97191.44;;;8.98;73.42
76195;BME280;64964;48.694;21.206;2023-03-31T10:40:20;97192.38;;;9.05;73.60
76195;BME280;64964;48.694;21.206;2023-03-31T10:42:57;97189.31;;;9.16;73.99
76195;BME280;64964;48.694;21.206;2023-03-31T10:45:36;97175.50;;;9.29;73.32
76195;BME280;64964;48.694;21.206;2023-03-31T10:48:02;97175.84;;;9.70;73.77
76195;BME280;64964;48.694;21.206;2023-03-31T10:50:33;97177.19;;;10.17;73.36
76195;BME280;64964;48.694;21.206;2023-03-31T10:53:13;97180.31;;;10.64;70.89
76195;BME280;64964;48.694;21.206;2023-03-31T11:03:54;97163.63;;;11.89;66.04
76195;BME280;64964;48.694;21.206;2023-03-31T11:06:32;97153.75;;;12.17;66.02
76195;BME280;64964;48.694;21.206;2023-03-31T11:12:03;97134.81;;;12.93;65.52
76195;BME280;64964;48.694;21.206;2023-03-31T11:14:39;97131.53;;;13.25;61.29
76195;BME280;64964;48.694;21.206;2023-03-31T11:31:01;97122.75;;;13.89;59.49
76195;BME280;64964;48.694;21.206;2023-03-31T11:33:45;97121.56;;;14.48;60.16
76195;BME280;64964;48.694;21.206;2023-03-31T11:41:42;97122.84;;;14.95;57.13
76195;BME280;64964;48.694;21.206;2023-03-31T11:44:14;97114.16;;;14.82;58.37
76195;BME280;64964;48.694;21.206;2023-03-31T11:46:56;97106.78;;;14.27;58.48
76195;BME280;64964;48.694;21.206;2023-03-31T11:49:27;97102.53;;;13.88;59.68
76195;BME280;64964;48.694;21.206;2023-03-31T11:52:02;97097.66;;;13.27;61.47
76195;BME280;64964;48.694;21.206;2023-03-31T11:54:35;97090.31;;;13.09;61.77
76195;BME280;64964;48.694;21.206;2023-03-31T11:57:09;97089.69;;;13.13;63.22
76195;BME280;64964;48.694;21.206;2023-03-31T11:59:38;97090.91;;;13.17;62.61
76195;BME280;64964;48.694;21.206;2023-03-31T12:02:22;97077.69;;;12.98;63.13
76195;BME280;64964;48.694;21.206;2023-03-31T12:04:53;97076.66;;;13.05;62.97
76195;BME280;64964;48.694;21.206;2023-03-31T12:10:35;97072.50;;;13.29;63.00
76195;BME280;64964;48.694;21.206;2023-03-31T12:15:40;97067.84;;;13.69;63.07
76195;BME280;64964;48.694;21.206;2023-03-31T12:18:20;97066.31;;;13.93;62.65
76195;BME280;64964;48.694;21.206;2023-03-31T12:20:50;97056.56;;;13.81;62.61
76195;BME280;64964;48.694;21.206;2023-03-31T12:23:19;97055.13;;;13.33;62.90
76195;BME280;64964;48.694;21.206;2023-03-31T12:26:05;97068.47;;;13.07;64.49
76195;BME280;64964;48.694;21.206;2023-03-31T12:28:35;97055.66;;;12.70;65.75
76195;BME280;64964;48.694;21.206;2023-03-31T12:31:03;97049.75;;;12.62;65.37
76195;BME280;64964;48.694;21.206;2023-03-31T12:33:39;97052.84;;;12.39;67.55
76195;BME280;64964;48.694;21.206;2023-03-31T12:45:01;97030.59;;;12.53;68.57
76195;BME280;64964;48.694;21.206;2023-03-31T12:55:54;97018.78;;;12.49;69.51
76195;BME280;64964;48.694;21.206;2023-03-31T13:06:44;97000.19;;;12.76;68.04
76195;BME280;64964;48.694;21.206;2023-03-31T13:08:57;96993.63;;;12.78;68.30
76195;BME280;64964;48.694;21.206;2023-03-31T13:14:22;96974.88;;;12.66;68.46
76195;BME280;64964;48.694;21.206;2023-03-31T13:16:48;96964.31;;;12.53;68.72
76195;BME280;64964;48.694;21.206;2023-03-31T13:19:32;96963.28;;;12.61;69.57
76195;BME280;64964;48.694;21.206;2023-03-31T13:21:59;96964.91;;;12.75;69.41
76195;BME280;64964;48.694;21.206;2023-03-31T13:24:27;96973.22;;;12.79;68.86
76195;BME280;64964;48.694;21.206;2023-03-31T13:26:54;96962.66;;;12.72;69.08
76195;BME280;64964;48.694;21.206;2023-03-31T13:29:25;96966.75;;;12.68;69.53
76195;BME280;64964;48.694;21.206;2023-03-31T13:34:34;96965.34;;;12.59;68.94
76195;BME280;64964;48.694;21.206;2023-03-31T13:40:24;96956.41;;;12.33;70.08
76195;BME280;64964;48.694;21.206;2023-03-31T13:48:02;96938.47;;;12.29;69.24
76195;BME280;64964;48.694;21.206;2023-03-31T13:53:28;96927.88;;;12.35;69.66
76195;BME280;64964;48.694;21.206;2023-03-31T14:04:19;96905.63;;;12.36;68.84
76195;BME280;64964;48.694;21.206;2023-03-31T14:06:59;96898.09;;;12.40;68.88
76195;BME280;64964;48.694;21.206;2023-03-31T14:09:35;96893.38;;;12.49;68.52
76195;BME280;64964;48.694;21.206;2023-03-31T14:12:24;96887.88;;;12.43;68.83
76195;BME280;64964;48.694;21.206;2023-03-31T14:14:53;96882.34;;;12.45;69.31
76195;BME280;64964;48.694;21.206;2023-03-31T14:17:21;96881.38;;;12.33;68.64
76195;BME280;64964;48.694;21.206;2023-03-31T14:22:55;96879.78;;;12.18;68.74
76195;BME280;64964;48.694;21.206;2023-03-31T14:39:04;96863.09;;;11.52;73.06
76195;BME280;64964;48.694;21.206;2023-03-31T14:41:31;96857.41;;;11.41;73.78
76195;BME280;64964;48.694;21.206;2023-03-31T14:44:00;96845.78;;;11.36;74.05
76195;BME280;64964;48.694;21.206;2023-03-31T14:46:30;96853.13;;;11.34;73.95
76195;BME280;64964;48.694;21.206;2023-03-31T14:49:14;96844.56;;;11.52;74.91
76195;BME280;64964;48.694;21.206;2023-03-31T14:51:43;96854.56;;;11.63;73.07
76195;BME280;64964;48.694;21.206;2023-03-31T14:54:17;96853.34;;;11.59;72.89
76195;BME280;64964;48.694;21.206;2023-03-31T14:56:46;96849.69;;;11.66;72.31
76195;BME280;64964;48.694;21.206;2023-03-31T14:59:24;96846.41;;;11.71;72.85
76195;BME280;64964;48.694;21.206;2023-03-31T15:01:51;96845.19;;;11.80;72.02
76195;BME280;64964;48.694;21.206;2023-03-31T15:04:23;96842.31;;;11.82;72.09
76195;BME280;64964;48.694;21.206;2023-03-31T15:06:50;96838.47;;;11.84;71.33
76195;BME280;64964;48.694;21.206;2023-03-31T15:09:28;96844.16;;;11.81;71.32
76195;BME280;64964;48.694;21.206;2023-03-31T15:11:59;96843.97;;;11.83;71.27
76195;BME280;64964;48.694;21.206;2023-03-31T15:14:30;96836.22;;;11.81;71.60
76195;BME280;64964;48.694;21.206;2023-03-31T15:16:58;96841.50;;;11.81;71.19
76195;BME280;64964;48.694;21.206;2023-03-31T15:19:28;96832.75;;;11.81;71.03
76195;BME280;64964;48.694;21.206;2023-03-31T15:22:14;96840.91;;;11.72;71.18
76195;BME280;64964;48.694;21.206;2023-03-31T15:24:41;96837.22;;;11.73;70.88
76195;BME280;64964;48.694;21.206;2023-03-31T15:29:54;96833.78;;;11.73;70.99
76195;BME280;64964;48.694;21.206;2023-03-31T15:32:24;96839.88;;;11.73;71.32
76195;BME280;64964;48.694;21.206;2023-03-31T15:34:51;96839.47;;;11.70;70.96
76195;BME280;64964;48.694;21.206;2023-03-31T15:37:30;96851.69;;;11.64;71.77
76195;BME280;64964;48.694;21.206;2023-03-31T15:40:01;96842.94;;;11.64;71.16
76195;BME280;64964;48.694;21.206;2023-03-31T15:42:32;96843.16;;;11.62;71.34